sensor_id;sensor_type;location;lat;lon;timestamp;pressure;altitude;pressure_sealevel;temperature;humidity
14818;BME280;7500;57.698;11.986;2022-09-24T00:01:08;101403.09;;;16.45;100.00
14818;BME280;7500;57.698;11.986;2022-09-24T00:03:36;101404.81;;;16.46;100.00
14818;BME280;7500;57.698;11.986;2022-09-24T00:06:05;101391.13;;;16.38;100.00
14818;BME280;7500;57.698;11.986;2022-09-24T00:08:32;101405.97;;;16.42;100.00
14818;BME280;7500;57.698;11.986;2022-09-24T00:11:01;101408.63;;;16.42;100.00
14818;BME280;7500;57.698;11.986;2022-09-24T00:13:28;101396.25;;;16.41;100.00
14818;BME280;7500;57.698;11.986;2022-09-24T00:15:55;101394.53;;;16.40;100.00
14818;BME280;7500;57.698;11.986;2022-09-24T00:18:22;101380.56;;;16.36;100.00
14818;BME280;7500;57.698;11.986;2022-09-24T00:20:51;101392.63;;;16.42;100.00
14818;BME280;7500;57.698;11.986;2022-09-24T00:23:17;101387.41;;;16.40;100.00
14818;BME280;7500;57.698;11.986;2022-09-24T00:25:45;101388.38;;;16.39;100.00
14818;BME280;7500;57.698;11.986;2022-09-24T00:28:31;101380.66;;;16.35;100.00
14818;BME280;7500;57.698;11.986;2022-09-24T00:30:58;101384.94;;;16.37;100.00
14818;BME280;7500;57.698;11.986;2022-09-24T00:33:26;101389.41;;;16.37;100.00
14818;BME280;7500;57.698;11.986;2022-09-24T00:35:59;101383.56;;;16.71;100.00
14818;BME280;7500;57.698;11.986;2022-09-24T00:38:26;101377.38;;;16.58;100.00
14818;BME280;7500;57.698;11.986;2022-09-24T00:40:53;101378.16;;;16.46;100.00
14818;BME280;7500;57.698;11.986;2022-09-24T00:43:22;101368.75;;;16.40;100.00
14818;BME280;7500;57.698;11.986;2022-09-24T00:45:50;101369.59;;;16.41;100.00
14818;BME280;7500;57.698;11.986;2022-09-24T00:48:18;101380.38;;;16.39;100.00
14818;BME280;7500;57.698;11.986;2022-09-24T00:50:45;101367.06;;;16.39;100.00
14818;BME280;7500;57.698;11.986;2022-09-24T00:53:17;101379.41;;;16.40;100.00
14818;BME280;7500;57.698;11.986;2022-09-24T00:55:48;101376.63;;;16.42;100.00
14818;BME280;7500;57.698;11.986;2022-09-24T00:58:19;101376.00;;;16.38;100.00
14818;BME280;7500;57.698;11.986;2022-09-24T01:00:49;101370.88;;;16.35;100.00
14818;BME280;7500;57.698;11.986;2022-09-24T01:03:19;101374.28;;;16.37;100.00
14818;BME280;7500;57.698;11.986;2022-09-24T01:05:48;101361.81;;;16.38;100.00
14818;BME280;7500;57.698;11.986;2022-09-24T01:08:18;101361.94;;;17.14;100.00
14818;BME280;7500;57.698;11.986;2022-09-24T01:14:00;101363.31;;;16.68;100.00
14818;BME280;7500;57.698;11.986;2022-09-24T01:16:37;101370.34;;;16.43;100.00
14818;BME280;7500;57.698;11.986;2022-09-24T01:19:33;101361.03;;;16.36;100.00
14818;BME280;7500;57.698;11.986;2022-09-24T01:22:08;101357.63;;;16.34;100.00
14818;BME280;7500;57.698;11.986;2022-09-24T01:24:57;101362.75;;;16.37;100.00
14818;BME280;7500;57.698;11.986;2022-09-24T01:27:38;101354.19;;;16.32;100.00
14818;BME280;7500;57.698;11.986;2022-09-24T01:30:11;101354.19;;;16.32;100.00
14818;BME280;7500;57.698;11.986;2022-09-24T01:32:40;101357.81;;;16.31;100.00
14818;BME280;7500;57.698;11.986;2022-09-24T01:35:14;101350.78;;;16.30;100.00
14818;BME280;7500;57.698;11.986;2022-09-24T01:37:47;101357.91;;;16.29;100.00
14818;BME280;7500;57.698;11.986;2022-09-24T01:40:17;101353.72;;;16.25;100.00
14818;BME280;7500;57.698;11.986;2022-09-24T01:42:46;101362.78;;;16.23;100.00
14818;BME280;7500;57.698;11.986;2022-09-24T01:45:15;101353.06;;;16.22;100.00
14818;BME280;7500;57.698;11.986;2022-09-24T01:47:43;101354.69;;;16.24;100.00
14818;BME280;7500;57.698;11.986;2022-09-24T01:50:12;101332.47;;;16.11;100.00
14818;BME280;7500;57.698;11.986;2022-09-24T01:52:43;101354.47;;;16.27;100.00
14818;BME280;7500;57.698;11.986;2022-09-24T01:55:14;101361.53;;;16.28;100.00
14818;BME280;7500;57.698;11.986;2022-09-24T01:57:45;101354.59;;;16.26;100.00
14818;BME280;7500;57.698;11.986;2022-09-24T02:00:16;101348.41;;;16.25;100.00
14818;BME280;7500;57.698;11.986;2022-09-24T02:02:47;101356.09;;;16.30;100.00
14818;BME280;7500;57.698;11.986;2022-09-24T02:05:19;101362.47;;;16.27;100.00
14818;BME280;7500;57.698;11.986;2022-09-24T02:07:53;101342.31;;;16.23;100.00
14818;BME280;7500;57.698;11.986;2022-09-24T02:10:21;101350.22;;;16.25;100.00
14818;BME280;7500;57.698;11.986;2022-09-24T02:12:51;101344.97;;;16.23;100.00
14818;BME280;7500;57.698;11.986;2022-09-24T02:15:26;101351.25;;;16.22;100.00
14818;BME280;7500;57.698;11.986;2022-09-24T02:17:56;101318.84;;;16.02;100.00
14818;BME280;7500;57.698;11.986;2022-09-24T02:20:25;101348.59;;;16.22;100.00
14818;BME280;7500;57.698;11.986;2022-09-24T02:22:54;101349.72;;;16.18;100.00
14818;BME280;7500;57.698;11.986;2022-09-24T02:25:26;101347.06;;;16.18;100.00
14818;BME280;7500;57.698;11.986;2022-09-24T02:27:54;101350.69;;;16.17;100.00
14818;BME280;7500;57.698;11.986;2022-09-24T02:30:23;101314.69;;;15.98;100.00
14818;BME280;7500;57.698;11.986;2022-09-24T02:32:52;101353.66;;;16.13;100.00
14818;BME280;7500;57.698;11.986;2022-09-24T02:35:20;101346.81;;;16.09;100.00
14818;BME280;7500;57.698;11.986;2022-09-24T02:37:46;101352.16;;;16.09;100.00
14818;BME280;7500;57.698;11.986;2022-09-24T02:40:13;101337.03;;;16.09;100.00
14818;BME280;7500;57.698;11.986;2022-09-24T02:42:41;101339.03;;;16.06;100.00
14818;BME280;7500;57.698;11.986;2022-09-24T02:45:09;101344.28;;;16.07;100.00
14818;BME280;7500;57.698;11.986;2022-09-24T02:47:37;101341.69;;;16.06;100.00
14818;BME280;7500;57.698;11.986;2022-09-24T02:50:05;101336.34;;;16.06;100.00
14818;BME280;7500;57.698;11.986;2022-09-24T02:52:32;101347.97;;;16.05;100.00
14818;BME280;7500;57.698;11.986;2022-09-24T02:54:59;101337.41;;;16.03;100.00
14818;BME280;7500;57.698;11.986;2022-09-24T02:57:26;101340.94;;;16.04;100.00
14818;BME280;7500;57.698;11.986;2022-09-24T02:59:53;101343.97;;;15.98;100.00
14818;BME280;7500;57.698;11.986;2022-09-24T03:02:19;101345.69;;;15.99;100.00
14818;BME280;7500;57.698;11.986;2022-09-24T03:04:48;101341.53;;;15.95;100.00
14818;BME280;7500;57.698;11.986;2022-09-24T03:07:16;101348.00;;;15.91;100.00
14818;BME280;7500;57.698;11.986;2022-09-24T03:09:43;101345.44;;;15.89;100.00
14818;BME280;7500;57.698;11.986;2022-09-24T03:12:10;101354.19;;;15.91;100.00
14818;BME280;7500;57.698;11.986;2022-09-24T03:14:37;101355.06;;;15.92;100.00
14818;BME280;7500;57.698;11.986;2022-09-24T03:17:04;101357.59;;;15.93;100.00
14818;BME280;7500;57.698;11.986;2022-09-24T03:19:30;101352.38;;;15.92;100.00
14818;BME280;7500;57.698;11.986;2022-09-24T03:21:59;101356.94;;;15.90;100.00
14818;BME280;7500;57.698;11.986;2022-09-24T03:24:25;101353.53;;;15.88;100.00
14818;BME280;7500;57.698;11.986;2022-09-24T03:26:52;101330.63;;;15.72;100.00
14818;BME280;7500;57.698;11.986;2022-09-24T03:29:19;101347.53;;;15.84;100.00
14818;BME280;7500;57.698;11.986;2022-09-24T03:32:07;101353.16;;;15.80;100.00
14818;BME280;7500;57.698;11.986;2022-09-24T03:34:33;101341.66;;;15.80;100.00
14818;BME280;7500;57.698;11.986;2022-09-24T03:37:01;101334.50;;;15.80;100.00
14818;BME280;7500;57.698;11.986;2022-09-24T03:39:28;101342.38;;;15.82;100.00
14818;BME280;7500;57.698;11.986;2022-09-24T03:41:55;101345.53;;;15.74;100.00
14818;BME280;7500;57.698;11.986;2022-09-24T03:44:21;101344.22;;;15.67;100.00
14818;BME280;7500;57.698;11.986;2022-09-24T03:46:48;101338.88;;;15.67;100.00
14818;BME280;7500;57.698;11.986;2022-09-24T03:49:15;101331.09;;;15.64;100.00
14818;BME280;7500;57.698;11.986;2022-09-24T03:51:42;101336.34;;;15.66;100.00
14818;BME280;7500;57.698;11.986;2022-09-24T03:54:11;101340.13;;;15.62;100.00
14818;BME280;7500;57.698;11.986;2022-09-24T03:56:38;101334.06;;;15.60;100.00
14818;BME280;7500;57.698;11.986;2022-09-24T03:59:04;101341.56;;;15.53;100.00
14818;BME280;7500;57.698;11.986;2022-09-24T04:01:31;101338.41;;;15.47;100.00
14818;BME280;7500;57.698;11.986;2022-09-24T04:04:01;101335.38;;;15.53;100.00
14818;BME280;7500;57.698;11.986;2022-09-24T04:06:28;101334.06;;;15.60;100.00
14818;BME280;7500;57.698;11.986;2022-09-24T04:08:55;101335.88;;;15.59;100.00
14818;BME280;7500;57.698;11.986;2022-09-24T04:11:23;101334.25;;;15.57;100.00
14818;BME280;7500;57.698;11.986;2022-09-24T04:13:50;101329.03;;;15.55;100.00
14818;BME280;7500;57.698;11.986;2022-09-24T04:16:17;101328.34;;;15.52;100.00
14818;BME280;7500;57.698;11.986;2022-09-24T04:18:44;101322.25;;;15.50;100.00
14818;BME280;7500;57.698;11.986;2022-09-24T04:21:13;101335.38;;;15.53;100.00
14818;BME280;7500;57.698;11.986;2022-09-24T04:23:39;101329.47;;;15.48;100.00
14818;BME280;7500;57.698;11.986;2022-09-24T04:26:06;101335.69;;;15.48;100.00
14818;BME280;7500;57.698;11.986;2022-09-24T04:28:35;101340.25;;;15.46;100.00
14818;BME280;7500;57.698;11.986;2022-09-24T04:31:02;101322.16;;;15.37;100.00
14818;BME280;7500;57.698;11.986;2022-09-24T04:33:30;101346.50;;;15.45;100.00
14818;BME280;7500;57.698;11.986;2022-09-24T04:35:57;101338.81;;;15.41;100.00
14818;BME280;7500;57.698;11.986;2022-09-24T04:38:24;101339.84;;;15.38;100.00
14818;BME280;7500;57.698;11.986;2022-09-24T04:40:51;101336.22;;;15.39;100.00
14818;BME280;7500;57.698;11.986;2022-09-24T04:43:18;101339.47;;;15.44;100.00
14818;BME280;7500;57.698;11.986;2022-09-24T04:45:46;101335.97;;;15.44;100.00
14818;BME280;7500;57.698;11.986;2022-09-24T04:48:13;101338.72;;;15.42;100.00
14818;BME280;7500;57.698;11.986;2022-09-24T04:50:40;101332.44;;;15.43;100.00
14818;BME280;7500;57.698;11.986;2022-09-24T04:53:06;101334.16;;;15.44;100.00
14818;BME280;7500;57.698;11.986;2022-09-24T04:55:33;101334.16;;;15.44;100.00
14818;BME280;7500;57.698;11.986;2022-09-24T04:58:01;101336.81;;;15.44;100.00
14818;BME280;7500;57.698;11.986;2022-09-24T05:00:28;101330.44;;;15.47;100.00
14818;BME280;7500;57.698;11.986;2022-09-24T05:03:00;101325.88;;;15.49;100.00
14818;BME280;7500;57.698;11.986;2022-09-24T05:05:29;101332.06;;;15.49;100.00
14818;BME280;7500;57.698;11.986;2022-09-24T05:07:56;101332.91;;;15.50;100.00
14818;BME280;7500;57.698;11.986;2022-09-24T05:10:30;101332.81;;;15.51;100.00
14818;BME280;7500;57.698;11.986;2022-09-24T05:12:59;101324.91;;;15.50;100.00
14818;BME280;7500;57.698;11.986;2022-09-24T05:15:26;101322.66;;;15.44;100.00
14818;BME280;7500;57.698;11.986;2022-09-24T05:17:53;101331.94;;;15.51;100.00
14818;BME280;7500;57.698;11.986;2022-09-24T05:20:21;101330.06;;;15.53;100.00
14818;BME280;7500;57.698;11.986;2022-09-24T05:22:55;101329.97;;;15.54;100.00
14818;BME280;7500;57.698;11.986;2022-09-24T05:25:28;101331.78;;;15.54;100.00
14818;BME280;7500;57.698;11.986;2022-09-24T05:27:55;101340.69;;;15.53;100.00
14818;BME280;7500;57.698;11.986;2022-09-24T05:30:23;101337.38;;;15.49;100.00
14818;BME280;7500;57.698;11.986;2022-09-24T05:32:50;101341.00;;;15.48;100.00
14818;BME280;7500;57.698;11.986;2022-09-24T05:35:17;101343.09;;;15.43;100.00
14818;BME280;7500;57.698;11.986;2022-09-24T05:37:45;101334.91;;;15.32;100.00
14818;BME280;7500;57.698;11.986;2022-09-24T05:40:14;101344.59;;;15.33;100.00
14818;BME280;7500;57.698;11.986;2022-09-24T05:42:59;101345.97;;;15.25;100.00
14818;BME280;7500;57.698;11.986;2022-09-24T05:45:27;101341.78;;;15.21;100.00
14818;BME280;7500;57.698;11.986;2022-09-24T05:47:54;101344.28;;;15.24;100.00
14818;BME280;7500;57.698;11.986;2022-09-24T05:50:20;101344.75;;;15.16;100.00
14818;BME280;7500;57.698;11.986;2022-09-24T05:52:49;101352.81;;;15.15;100.00
14818;BME280;7500;57.698;11.986;2022-09-24T05:55:15;101342.16;;;15.15;100.00
14818;BME280;7500;57.698;11.986;2022-09-24T05:57:42;101349.31;;;15.14;100.00
14818;BME280;7500;57.698;11.986;2022-09-24T06:00:10;101346.81;;;15.11;100.00
14818;BME280;7500;57.698;11.986;2022-09-24T06:02:37;101349.31;;;15.14;100.00
14818;BME280;7500;57.698;11.986;2022-09-24T06:05:05;101358.88;;;15.17;100.00
14818;BME280;7500;57.698;11.986;2022-09-24T06:07:32;101364.03;;;15.20;100.00
14818;BME280;7500;57.698;11.986;2022-09-24T06:10:00;101353.75;;;15.14;100.00
14818;BME280;7500;57.698;11.986;2022-09-24T06:12:27;101357.09;;;15.17;100.00
14818;BME280;7500;57.698;11.986;2022-09-24T06:14:54;101365.47;;;15.25;100.00
14818;BME280;7500;57.698;11.986;2022-09-24T06:17:21;101355.78;;;15.24;100.00
14818;BME280;7500;57.698;11.986;2022-09-24T06:19:48;101354.06;;;15.23;100.00
14818;BME280;7500;57.698;11.986;2022-09-24T06:22:14;101354.16;;;15.22;100.00
14818;BME280;7500;57.698;11.986;2022-09-24T06:24:41;101357.75;;;15.21;100.00
14818;BME280;7500;57.698;11.986;2022-09-24T06:27:09;101351.59;;;15.20;100.00
14818;BME280;7500;57.698;11.986;2022-09-24T06:29:36;101362.25;;;15.34;100.00
14818;BME280;7500;57.698;11.986;2022-09-24T06:32:03;101355.06;;;15.36;100.00
14818;BME280;7500;57.698;11.986;2022-09-24T06:34:31;101346.69;;;15.28;100.00
14818;BME280;7500;57.698;11.986;2022-09-24T06:36:57;101359.34;;;15.39;100.00
14818;BME280;7500;57.698;11.986;2022-09-24T06:39:25;101358.03;;;15.46;100.00
14818;BME280;7500;57.698;11.986;2022-09-24T06:41:52;101356.00;;;15.49;100.00
14818;BME280;7500;57.698;11.986;2022-09-24T06:44:20;101351.63;;;15.48;100.00
14818;BME280;7500;57.698;11.986;2022-09-24T06:46:47;101354.31;;;15.48;100.00
14818;BME280;7500;57.698;11.986;2022-09-24T06:49:14;101355.84;;;15.52;100.00
14818;BME280;7500;57.698;11.986;2022-09-24T06:51:47;101357.72;;;15.50;100.00
14818;BME280;7500;57.698;11.986;2022-09-24T06:54:14;101364.75;;;15.51;100.00
14818;BME280;7500;57.698;11.986;2022-09-24T06:56:41;101361.72;;;15.43;100.00
14818;BME280;7500;57.698;11.986;2022-09-24T06:59:07;101370.25;;;15.34;100.00
14818;BME280;7500;57.698;11.986;2022-09-24T07:01:36;101371.19;;;15.33;100.00
14818;BME280;7500;57.698;11.986;2022-09-24T07:04:03;101367.78;;;15.31;100.00
14818;BME280;7500;57.698;11.986;2022-09-24T07:06:30;101364.38;;;15.29;100.00
14818;BME280;7500;57.698;11.986;2022-09-24T07:09:16;101369.16;;;15.23;100.00
14818;BME280;7500;57.698;11.986;2022-09-24T07:11:43;101369.69;;;15.14;100.00
14818;BME280;7500;57.698;11.986;2022-09-24T07:14:11;101367.25;;;15.11;100.00
14818;BME280;7500;57.698;11.986;2022-09-24T07:16:39;101370.75;;;15.11;100.00
14818;BME280;7500;57.698;11.986;2022-09-24T07:19:06;101373.88;;;15.04;100.00
14818;BME280;7500;57.698;11.986;2022-09-24T07:21:33;101362.47;;;15.02;100.00
14818;BME280;7500;57.698;11.986;2022-09-24T07:23:59;101381.50;;;15.10;100.00
14818;BME280;7500;57.698;11.986;2022-09-24T07:26:27;101375.97;;;15.13;100.00
14818;BME280;7500;57.698;11.986;2022-09-24T07:28:54;101374.84;;;15.17;100.00
14818;BME280;7500;57.698;11.986;2022-09-24T07:31:21;101378.09;;;15.22;100.00
14818;BME280;7500;57.698;11.986;2022-09-24T07:33:50;101381.63;;;15.22;100.00
14818;BME280;7500;57.698;11.986;2022-09-24T07:36:17;101381.28;;;15.28;100.00
14818;BME280;7500;57.698;11.986;2022-09-24T07:38:44;101382.28;;;15.26;100.00
14818;BME280;7500;57.698;11.986;2022-09-24T07:41:11;101386.50;;;15.30;100.00
14818;BME280;7500;57.698;11.986;2022-09-24T07:43:38;101380.06;;;15.34;100.00
14818;BME280;7500;57.698;11.986;2022-09-24T07:46:05;101391.16;;;15.40;100.00
14818;BME280;7500;57.698;11.986;2022-09-24T07:48:32;101394.31;;;15.47;100.00
14818;BME280;7500;57.698;11.986;2022-09-24T07:51:01;101390.50;;;15.51;100.00
14818;BME280;7500;57.698;11.986;2022-09-24T07:53:27;101378.06;;;15.51;100.00
14818;BME280;7500;57.698;11.986;2022-09-24T07:55:58;101388.44;;;15.56;100.00
14818;BME280;7500;57.698;11.986;2022-09-24T07:58:24;101389.28;;;15.56;100.00
14818;BME280;7500;57.698;11.986;2022-09-24T08:00:51;101383.09;;;15.56;100.00
14818;BME280;7500;57.698;11.986;2022-09-24T08:03:18;101391.66;;;15.61;100.00
14818;BME280;7500;57.698;11.986;2022-09-24T08:05:45;101389.00;;;15.61;100.00
14818;BME280;7500;57.698;11.986;2022-09-24T08:08:13;101390.72;;;15.62;100.00
14818;BME280;7500;57.698;11.986;2022-09-24T08:10:41;101385.50;;;15.60;100.00
14818;BME280;7500;57.698;11.986;2022-09-24T08:13:08;101392.13;;;15.67;100.00
14818;BME280;7500;57.698;11.986;2022-09-24T08:15:35;101398.22;;;15.69;100.00
14818;BME280;7500;57.698;11.986;2022-09-24T08:18:02;101387.69;;;15.68;100.00
14818;BME280;7500;57.698;11.986;2022-09-24T08:20:29;101399.06;;;15.83;100.00
14818;BME280;7500;57.698;11.986;2022-09-24T08:22:59;101396.13;;;15.88;100.00
14818;BME280;7500;57.698;11.986;2022-09-24T08:25:27;101392.34;;;15.92;100.00
14818;BME280;7500;57.698;11.986;2022-09-24T08:27:59;101397.16;;;15.99;100.00
14818;BME280;7500;57.698;11.986;2022-09-24T08:30:26;101402.19;;;16.04;100.00
14818;BME280;7500;57.698;11.986;2022-09-24T08:32:53;101404.97;;;16.02;100.00
14818;BME280;7500;57.698;11.986;2022-09-24T08:35:20;101397.81;;;16.03;100.00
14818;BME280;7500;57.698;11.986;2022-09-24T08:37:47;101402.31;;;16.02;100.00
14818;BME280;7500;57.698;11.986;2022-09-24T08:40:16;101403.91;;;16.05;100.00
14818;BME280;7500;57.698;11.986;2022-09-24T08:42:49;101398.00;;;16.00;100.00
14818;BME280;7500;57.698;11.986;2022-09-24T08:45:21;101404.66;;;16.07;100.00
14818;BME280;7500;57.698;11.986;2022-09-24T08:48:10;101411.81;;;16.06;100.00
14818;BME280;7500;57.698;11.986;2022-09-24T08:50:46;101409.03;;;16.08;100.00
14818;BME280;7500;57.698;11.986;2022-09-24T08:53:19;101409.22;;;16.05;100.00
14818;BME280;7500;57.698;11.986;2022-09-24T08:55:50;101415.69;;;16.01;100.00
14818;BME280;7500;57.698;11.986;2022-09-24T08:58:30;101413.97;;;16.28;100.00
14818;BME280;7500;57.698;11.986;2022-09-24T09:01:09;101405.53;;;16.07;100.00
14818;BME280;7500;57.698;11.986;2022-09-24T09:03:43;101408.44;;;16.98;100.00
14818;BME280;7500;57.698;11.986;2022-09-24T09:06:16;101407.97;;;16.24;100.00
14818;BME280;7500;57.698;11.986;2022-09-24T09:08:57;101416.66;;;16.14;100.00
14818;BME280;7500;57.698;11.986;2022-09-24T09:11:31;101417.03;;;16.08;100.00
14818;BME280;7500;57.698;11.986;2022-09-24T09:14:05;101413.78;;;16.03;100.00
14818;BME280;7500;57.698;11.986;2022-09-24T09:16:42;101420.75;;;16.05;100.00
14818;BME280;7500;57.698;11.986;2022-09-24T09:19:13;101416.28;;;16.06;100.00
14818;BME280;7500;57.698;11.986;2022-09-24T09:21:43;101420.06;;;16.16;100.00
14818;BME280;7500;57.698;11.986;2022-09-24T09:24:16;101419.78;;;16.20;100.00
14818;BME280;7500;57.698;11.986;2022-09-24T09:26:46;101421.69;;;16.18;100.00
14818;BME280;7500;57.698;11.986;2022-09-24T09:29:15;101418.75;;;16.23;100.00
14818;BME280;7500;57.698;11.986;2022-09-24T09:31:52;101421.47;;;16.21;100.00
14818;BME280;7500;57.698;11.986;2022-09-24T09:34:43;101407.91;;;16.12;100.00
14818;BME280;7500;57.698;11.986;2022-09-24T09:37:21;101417.03;;;16.22;100.00
14818;BME280;7500;57.698;11.986;2022-09-24T09:39:55;101417.66;;;16.25;100.00
14818;BME280;7500;57.698;11.986;2022-09-24T09:42:27;101419.19;;;16.29;100.00
14818;BME280;7500;57.698;11.986;2022-09-24T09:44:59;101411.97;;;16.31;100.00
14818;BME280;7500;57.698;11.986;2022-09-24T09:47:36;101419.13;;;16.31;100.00
14818;BME280;7500;57.698;11.986;2022-09-24T09:50:13;101411.97;;;16.31;100.00
14818;BME280;7500;57.698;11.986;2022-09-24T09:52:45;101415.31;;;16.35;100.00
14818;BME280;7500;57.698;11.986;2022-09-24T09:55:20;101416.75;;;16.40;100.00
14818;BME280;7500;57.698;11.986;2022-09-24T09:57:47;101418.25;;;16.44;100.00
14818;BME280;7500;57.698;11.986;2022-09-24T10:00:25;101416.22;;;16.48;100.00
14818;BME280;7500;57.698;11.986;2022-09-24T10:02:53;101379.91;;;16.33;100.00
14818;BME280;7500;57.698;11.986;2022-09-24T10:05:21;101405.44;;;16.49;100.00
14818;BME280;7500;57.698;11.986;2022-09-24T10:07:53;101418.31;;;16.57;100.00
14818;BME280;7500;57.698;11.986;2022-09-24T10:10:21;101410.75;;;16.63;100.00
14818;BME280;7500;57.698;11.986;2022-09-24T10:12:51;101408.72;;;16.67;100.00
14818;BME280;7500;57.698;11.986;2022-09-24T10:15:21;101408.34;;;16.73;100.00
14818;BME280;7500;57.698;11.986;2022-09-24T10:17:51;101413.47;;;16.76;100.00
14818;BME280;7500;57.698;11.986;2022-09-24T10:20:22;101402.41;;;16.82;100.00
14818;BME280;7500;57.698;11.986;2022-09-24T10:22:53;101409.13;;;16.87;100.00
14818;BME280;7500;57.698;11.986;2022-09-24T10:25:23;101398.78;;;16.83;100.00
14818;BME280;7500;57.698;11.986;2022-09-24T10:27:53;101404.06;;;16.97;100.00
14818;BME280;7500;57.698;11.986;2022-09-24T10:30:49;101406.59;;;16.98;100.00
14818;BME280;7500;57.698;11.986;2022-09-24T10:33:17;101420.81;;;16.99;100.00
14818;BME280;7500;57.698;11.986;2022-09-24T10:35:44;101414.41;;;17.01;100.00
14818;BME280;7500;57.698;11.986;2022-09-24T10:38:16;101412.69;;;17.00;100.00
14818;BME280;7500;57.698;11.986;2022-09-24T10:40:44;101412.06;;;16.97;100.00
14818;BME280;7500;57.698;11.986;2022-09-24T10:43:16;101417.16;;;16.99;100.00
14818;BME280;7500;57.698;11.986;2022-09-24T10:46:04;101412.50;;;17.03;100.00
14818;BME280;7500;57.698;11.986;2022-09-24T10:48:42;101410.66;;;17.03;100.00
14818;BME280;7500;57.698;11.986;2022-09-24T10:51:21;101410.66;;;17.03;100.00
14818;BME280;7500;57.698;11.986;2022-09-24T10:53:58;101402.56;;;17.05;100.00
14818;BME280;7500;57.698;11.986;2022-09-24T10:56:32;101408.53;;;17.08;100.00
14818;BME280;7500;57.698;11.986;2022-09-24T10:59:20;101405.88;;;17.08;100.00
14818;BME280;7500;57.698;11.986;2022-09-24T11:02:02;101402.38;;;17.08;100.00
14818;BME280;7500;57.698;11.986;2022-09-24T11:04:49;101403.97;;;17.10;100.00
14818;BME280;7500;57.698;11.986;2022-09-24T11:07:31;101407.38;;;17.12;100.00
14818;BME280;7500;57.698;11.986;2022-09-24T11:10:07;101396.28;;;17.18;100.00
14818;BME280;7500;57.698;11.986;2022-09-24T11:12:42;101398.63;;;17.23;100.00
14818;BME280;7500;57.698;11.986;2022-09-24T11:15:25;101402.72;;;17.28;100.00
14818;BME280;7500;57.698;11.986;2022-09-24T11:18:08;101390.34;;;17.27;100.00
14818;BME280;7500;57.698;11.986;2022-09-24T11:20:43;101392.88;;;17.29;100.00
14818;BME280;7500;57.698;11.986;2022-09-24T11:26:11;101402.56;;;17.31;100.00
14818;BME280;7500;57.698;11.986;2022-09-24T11:28:57;101402.31;;;17.34;100.00
14818;BME280;7500;57.698;11.986;2022-09-24T11:31:33;101408.53;;;17.35;100.00
14818;BME280;7500;57.698;11.986;2022-09-24T11:34:12;101400.72;;;17.32;100.00
14818;BME280;7500;57.698;11.986;2022-09-24T11:36:52;101403.19;;;17.35;100.00
14818;BME280;7500;57.698;11.986;2022-09-24T11:39:37;101404.44;;;17.29;100.00
14818;BME280;7500;57.698;11.986;2022-09-24T11:42:17;101408.72;;;17.32;100.00
14818;BME280;7500;57.698;11.986;2022-09-24T11:45:09;101408.72;;;17.32;100.00
14818;BME280;7500;57.698;11.986;2022-09-24T11:47:51;101404.66;;;17.26;100.00
14818;BME280;7500;57.698;11.986;2022-09-24T11:50:27;101405.59;;;17.25;100.00
14818;BME280;7500;57.698;11.986;2022-09-24T11:53:03;101407.09;;;17.29;100.00
14818;BME280;7500;57.698;11.986;2022-09-24T11:55:34;101411.47;;;17.30;100.00
14818;BME280;7500;57.698;11.986;2022-09-24T11:58:11;101403.47;;;17.30;100.00
14818;BME280;7500;57.698;11.986;2022-09-24T12:00:42;101400.72;;;17.32;100.00
14818;BME280;7500;57.698;11.986;2022-09-24T12:03:14;101407.66;;;17.34;100.00
14818;BME280;7500;57.698;11.986;2022-09-24T12:05:45;101405.22;;;17.31;100.00
14818;BME280;7500;57.698;11.986;2022-09-24T12:08:19;101408.81;;;17.30;100.00
14818;BME280;7500;57.698;11.986;2022-09-24T12:10:57;101411.28;;;17.33;100.00
14818;BME280;7500;57.698;11.986;2022-09-24T12:13:27;101409.25;;;17.99;100.00
14818;BME280;7500;57.698;11.986;2022-09-24T12:15:59;101403.00;;;18.23;100.00
14818;BME280;7500;57.698;11.986;2022-09-24T12:18:31;101403.09;;;17.61;100.00
14818;BME280;7500;57.698;11.986;2022-09-24T12:21:04;101410.03;;;17.51;100.00
14818;BME280;7500;57.698;11.986;2022-09-24T12:23:38;101412.91;;;17.48;100.00
14818;BME280;7500;57.698;11.986;2022-09-24T12:26:05;101407.91;;;17.44;100.00
14818;BME280;7500;57.698;11.986;2022-09-24T12:28:38;101414.50;;;17.51;100.00
14818;BME280;7500;57.698;11.986;2022-09-24T12:31:28;101415.38;;;17.51;100.00
14818;BME280;7500;57.698;11.986;2022-09-24T12:34:20;101412.50;;;17.54;100.00
14818;BME280;7500;57.698;11.986;2022-09-24T12:36:56;101417.72;;;17.56;100.00
14818;BME280;7500;57.698;11.986;2022-09-24T12:39:29;101422.22;;;17.55;100.00
14818;BME280;7500;57.698;11.986;2022-09-24T12:42:01;101415.78;;;17.58;100.00
14818;BME280;7500;57.698;11.986;2022-09-24T12:44:38;101420.28;;;17.57;100.00
14818;BME280;7500;57.698;11.986;2022-09-24T12:47:14;101422.22;;;17.55;100.00
14818;BME280;7500;57.698;11.986;2022-09-24T12:49:47;101415.16;;;17.54;100.00
14818;BME280;7500;57.698;11.986;2022-09-24T12:52:20;101412.56;;;17.53;100.00
14818;BME280;7500;57.698;11.986;2022-09-24T12:54:56;101405.66;;;17.50;100.00
14818;BME280;7500;57.698;11.986;2022-09-24T12:57:26;101410.03;;;17.51;100.00
14818;BME280;7500;57.698;11.986;2022-09-24T12:59:56;101407.47;;;17.50;100.00
14818;BME280;7500;57.698;11.986;2022-09-24T13:02:25;101399.34;;;17.51;100.00
14818;BME280;7500;57.698;11.986;2022-09-24T13:05:25;101402.97;;;17.50;100.00